createdAt,value
2019-03-29T00:03:09.684Z,5.84
2019-03-29T00:08:04.014Z,5.69
2019-03-29T00:12:57.976Z,5.53
2019-03-29T00:17:52.057Z,5.42
2019-03-29T00:22:46.217Z,5.40
2019-03-29T00:27:40.240Z,5.39
2019-03-29T00:32:34.362Z,5.39
2019-03-29T00:37:28.318Z,5.26
2019-03-29T00:42:22.400Z,5.20
2019-03-29T00:47:16.348Z,5.16
2019-03-29T00:52:10.325Z,5.12
2019-03-29T00:57:05.013Z,5.07
2019-03-29T01:01:59.381Z,5.05
2019-03-29T01:06:53.334Z,5.05
2019-03-29T01:11:47.323Z,5.05
2019-03-29T01:16:41.291Z,4.97
2019-03-29T01:21:35.249Z,5.01
2019-03-29T01:26:29.209Z,5.01
2019-03-29T01:31:23.302Z,4.94
2019-03-29T01:36:17.348Z,4.95
2019-03-29T01:41:11.303Z,4.88
2019-03-29T01:46:05.267Z,4.79
2019-03-29T01:50:59.342Z,4.86
2019-03-29T01:55:53.310Z,4.81
2019-03-29T02:00:47.291Z,4.78
2019-03-29T02:05:41.380Z,4.81
2019-03-29T02:10:35.581Z,4.75
2019-03-29T02:15:29.656Z,4.70
2019-03-29T02:20:24.156Z,4.65
2019-03-29T02:25:18.219Z,4.53
2019-03-29T02:30:12.585Z,4.45
2019-03-29T02:35:06.748Z,4.37
2019-03-29T02:40:01.508Z,4.34
2019-03-29T02:44:55.465Z,4.33
2019-03-29T02:49:49.442Z,4.25
2019-03-29T02:54:43.406Z,4.27
2019-03-29T02:59:37.382Z,4.17
2019-03-29T03:04:31.450Z,4.11
2019-03-29T03:09:25.436Z,4.05
2019-03-29T03:14:19.501Z,4.00
2019-03-29T03:19:13.496Z,3.98
2019-03-29T03:24:07.499Z,3.94
2019-03-29T03:29:01.546Z,3.90
2019-03-29T03:33:55.698Z,3.89
2019-03-29T03:38:49.861Z,3.95
2019-03-29T03:43:43.931Z,3.91
2019-03-29T03:48:37.894Z,3.78
2019-03-29T03:53:31.855Z,3.73
2019-03-29T03:58:26.442Z,3.75
2019-03-29T04:03:21.265Z,3.79
2019-03-29T04:08:16.725Z,3.68
2019-03-29T04:13:10.674Z,3.72
2019-03-29T04:18:04.654Z,3.55
2019-03-29T04:22:58.641Z,3.48
2019-03-29T04:27:52.641Z,3.70
2019-03-29T04:32:46.627Z,3.57
2019-03-29T04:37:40.594Z,3.41
2019-03-29T04:42:34.558Z,3.40
2019-03-29T04:47:28.533Z,3.33
2019-03-29T04:52:22.591Z,3.28
2019-03-29T04:57:16.585Z,3.56
2019-03-29T05:02:10.580Z,3.46
2019-03-29T05:07:04.581Z,3.25
2019-03-29T05:11:58.659Z,3.18
2019-03-29T05:16:52.633Z,3.16
2019-03-29T05:21:46.622Z,3.12
2019-03-29T05:26:40.588Z,3.16
2019-03-29T05:31:34.543Z,3.26
2019-03-29T05:36:28.514Z,3.21
2019-03-29T05:41:22.602Z,3.28
2019-03-29T05:46:16.686Z,3.35
2019-03-29T05:51:10.707Z,3.48
2019-03-29T05:56:04.861Z,3.59
2019-03-29T06:00:58.977Z,3.72
2019-03-29T06:05:52.973Z,3.83
2019-03-29T06:10:49.238Z,3.99
2019-03-29T06:15:42.906Z,4.14
2019-03-29T06:20:37.035Z,4.33
2019-03-29T06:25:31.027Z,4.51
2019-03-29T06:30:29.265Z,4.70
2019-03-29T06:35:23.579Z,4.93
2019-03-29T06:40:24.224Z,5.14
2019-03-29T06:45:18.232Z,5.38
2019-03-29T06:50:14.038Z,5.65
2019-03-29T06:55:08.292Z,5.97
2019-03-29T07:00:03.943Z,6.32
2019-03-29T07:04:57.966Z,6.73
2019-03-29T07:09:51.944Z,7.08
2019-03-29T07:14:45.934Z,7.40
2019-03-29T07:19:39.908Z,7.73
2019-03-29T07:24:33.965Z,8.04
2019-03-29T07:29:27.962Z,8.33
2019-03-29T07:34:21.912Z,8.67
2019-03-29T07:39:15.879Z,8.95
2019-03-29T07:44:09.899Z,9.13
2019-03-29T07:49:04.110Z,9.32
2019-03-29T07:53:58.079Z,9.61
2019-03-29T07:58:52.081Z,9.82
2019-03-29T08:03:46.157Z,9.92
2019-03-29T08:08:40.246Z,10.11
2019-03-29T08:13:34.328Z,10.34
2019-03-29T08:18:28.300Z,10.55
2019-03-29T08:23:22.277Z,10.75
2019-03-29T08:28:16.283Z,10.84
2019-03-29T08:33:10.476Z,11.07
2019-03-29T08:38:06.381Z,11.19
2019-03-29T08:43:00.453Z,11.43
2019-03-29T08:47:54.556Z,11.68
2019-03-29T08:52:48.512Z,11.78
2019-03-29T08:57:42.483Z,11.96
2019-03-29T09:02:36.521Z,12.03
2019-03-29T09:07:44.009Z,12.31
2019-03-29T09:12:26.638Z,12.50
2019-03-29T09:17:20.583Z,12.85
2019-03-29T09:22:14.540Z,12.91
2019-03-29T09:27:08.506Z,13.05
2019-03-29T09:32:02.581Z,13.24
2019-03-29T09:36:59.760Z,13.49
2019-03-29T09:41:52.544Z,13.76
2019-03-29T09:46:46.525Z,14.01
2019-03-29T09:51:40.728Z,14.07
2019-03-29T09:56:39.041Z,14.11
2019-03-29T10:01:30.851Z,14.35
2019-03-29T10:06:24.924Z,14.54
2019-03-29T10:11:21.860Z,15.05
2019-03-29T10:16:14.755Z,15.30
2019-03-29T10:21:08.735Z,16.03
2019-03-29T10:26:02.923Z,16.44
2019-03-29T10:30:57.001Z,17.01
2019-03-29T10:35:52.672Z,17.83
2019-03-29T10:40:47.054Z,18.85
2019-03-29T10:45:41.023Z,20.57
2019-03-29T10:50:35.291Z,22.45
2019-03-29T10:55:29.379Z,24.87
2019-03-29T11:00:33.983Z,28.48
2019-03-29T11:05:27.963Z,28.48
2019-03-29T11:10:29.860Z,28.84
2019-03-29T11:15:24.035Z,30.90
2019-03-29T11:20:18.805Z,29.98
2019-03-29T11:25:12.887Z,30.81
2019-03-29T11:30:07.011Z,33.40
2019-03-29T11:35:01.254Z,34.93
2019-03-29T11:39:55.245Z,35.35
2019-03-29T11:44:49.410Z,35.23
2019-03-29T11:49:43.408Z,30.64
2019-03-29T11:54:37.520Z,33.49
2019-03-29T11:59:31.679Z,35.03
2019-03-29T12:04:25.680Z,35.26
2019-03-29T12:09:19.674Z,37.81
2019-03-29T12:14:13.635Z,37.93
2019-03-29T12:19:07.708Z,32.73
2019-03-29T12:24:01.692Z,37.93
2019-03-29T12:28:55.701Z,38.79
2019-03-29T12:33:49.686Z,39.98
2019-03-29T12:38:43.758Z,39.94
2019-03-29T12:43:37.850Z,41.29
2019-03-29T12:48:31.907Z,41.39
2019-03-29T12:53:25.912Z,42.24
2019-03-29T12:58:19.881Z,39.87
2019-03-29T13:03:13.881Z,41.85
2019-03-29T13:08:07.896Z,42.30
2019-03-29T13:13:01.980Z,44.02
2019-03-29T13:17:55.961Z,45.06
2019-03-29T13:22:49.948Z,45.01
2019-03-29T13:27:43.914Z,44.64
2019-03-29T13:32:38.015Z,44.18
2019-03-29T13:37:32.062Z,44.81
2019-03-29T13:42:26.150Z,45.13
2019-03-29T13:47:20.144Z,44.49
2019-03-29T13:52:14.303Z,44.90
2019-03-29T13:57:08.315Z,43.34
2019-03-29T14:02:02.431Z,35.37
2019-03-29T14:06:56.432Z,32.34
2019-03-29T14:11:50.401Z,31.73
2019-03-29T14:16:44.381Z,31.31
2019-03-29T14:21:38.380Z,33.73
2019-03-29T14:26:32.377Z,38.33
2019-03-29T14:31:26.483Z,41.82
2019-03-29T14:36:20.487Z,43.82
2019-03-29T14:41:14.585Z,44.78
2019-03-29T14:46:08.537Z,45.45
2019-03-29T14:51:02.673Z,46.44
2019-03-29T14:55:56.676Z,45.93
2019-03-29T15:00:50.697Z,45.21
2019-03-29T15:05:44.662Z,46.72
2019-03-29T15:10:38.863Z,47.12
2019-03-29T15:15:32.849Z,47.74
2019-03-29T15:20:26.925Z,48.10
2019-03-29T15:25:20.917Z,48.85
2019-03-29T15:30:15.152Z,49.31
2019-03-29T15:35:09.428Z,49.62
2019-03-29T15:40:04.420Z,49.80
2019-03-29T15:44:58.424Z,50.12
2019-03-29T15:49:56.134Z,49.89
2019-03-29T15:54:48.275Z,49.89
2019-03-29T15:59:42.286Z,48.78
2019-03-29T16:04:36.286Z,48.46
2019-03-29T16:09:30.267Z,48.06
2019-03-29T16:14:24.217Z,48.83
2019-03-29T16:19:18.414Z,48.17
2019-03-29T16:24:12.403Z,47.11
2019-03-29T16:29:06.532Z,46.63
2019-03-29T16:34:00.610Z,46.12
2019-03-29T16:38:54.622Z,44.98
2019-03-29T16:43:48.580Z,45.11
2019-03-29T16:48:42.575Z,44.39
2019-03-29T16:53:39.649Z,43.38
2019-03-29T16:58:32.456Z,43.09
2019-03-29T17:03:26.581Z,41.45
2019-03-29T17:08:20.694Z,40.20
2019-03-29T17:13:14.705Z,33.38
2019-03-29T17:18:08.805Z,27.45
2019-03-29T17:23:03.358Z,25.50
2019-03-29T17:27:57.364Z,24.11
2019-03-29T17:32:51.432Z,23.18
2019-03-29T17:37:45.507Z,21.97
2019-03-29T17:42:39.502Z,21.11
2019-03-29T17:47:33.688Z,20.85
2019-03-29T17:52:27.802Z,19.89
2019-03-29T17:57:21.874Z,19.62
2019-03-29T18:02:16.084Z,19.25
2019-03-29T18:07:10.441Z,18.70
2019-03-29T18:12:04.510Z,18.23
2019-03-29T18:16:58.626Z,17.86
2019-03-29T18:21:52.729Z,17.52
2019-03-29T18:26:46.709Z,17.22
2019-03-29T18:31:40.819Z,16.82
2019-03-29T18:36:34.918Z,16.63
2019-03-29T18:41:28.904Z,16.47
2019-03-29T18:46:23.040Z,16.27
2019-03-29T18:51:17.014Z,16.02
2019-03-29T18:56:11.021Z,15.76
2019-03-29T19:01:05.135Z,15.51
2019-03-29T19:05:59.082Z,15.31
2019-03-29T19:10:53.202Z,15.21
2019-03-29T19:15:47.187Z,14.98
2019-03-29T19:20:41.309Z,14.77
2019-03-29T19:25:35.446Z,14.59
2019-03-29T19:30:29.463Z,14.44
2019-03-29T19:35:23.807Z,14.31
2019-03-29T19:40:18.034Z,14.20
2019-03-29T19:45:12.312Z,14.13
2019-03-29T19:50:06.714Z,14.03
2019-03-29T19:55:01.471Z,13.86
2019-03-29T19:59:56.078Z,13.68
2019-03-29T20:04:50.060Z,13.60
2019-03-29T20:09:44.304Z,13.47
2019-03-29T20:14:38.405Z,13.36
2019-03-29T20:19:32.553Z,13.25
2019-03-29T20:24:26.584Z,13.11
2019-03-29T20:29:20.659Z,13.01
2019-03-29T20:34:14.747Z,12.89
2019-03-29T20:39:08.748Z,12.72
2019-03-29T20:44:02.873Z,12.55
2019-03-29T20:48:56.888Z,12.39
2019-03-29T20:53:51.072Z,12.21
2019-03-29T20:58:45.091Z,12.13
2019-03-29T21:03:39.274Z,12.02
2019-03-29T21:08:33.262Z,11.89
2019-03-29T21:13:27.410Z,11.84
2019-03-29T21:18:21.422Z,11.80
2019-03-29T21:23:15.427Z,11.71
2019-03-29T21:28:09.499Z,11.65
2019-03-29T21:33:03.626Z,11.50
2019-03-29T21:37:57.829Z,11.37
2019-03-29T21:42:51.845Z,11.30
2019-03-29T21:47:46.209Z,11.22
2019-03-29T21:52:40.235Z,11.12
2019-03-29T21:57:34.307Z,11.04
2019-03-29T22:02:28.364Z,10.96
2019-03-29T22:07:22.342Z,10.87
2019-03-29T22:12:16.406Z,10.84
2019-03-29T22:17:10.487Z,10.73
2019-03-29T22:22:04.474Z,10.65
2019-03-29T22:26:58.462Z,10.58
2019-03-29T22:31:52.464Z,10.47
2019-03-29T22:36:46.460Z,10.43
2019-03-29T22:41:40.444Z,10.27
2019-03-29T22:46:34.430Z,10.15
2019-03-29T22:51:28.402Z,10.07
2019-03-29T22:56:22.485Z,9.98
2019-03-29T23:01:17.547Z,9.84
2019-03-29T23:06:11.644Z,9.69
2019-03-29T23:11:05.671Z,9.56
2019-03-29T23:15:59.803Z,9.45
2019-03-29T23:20:54.039Z,9.29
2019-03-29T23:25:47.984Z,9.19
2019-03-29T23:30:42.061Z,9.08
2019-03-29T23:35:36.060Z,8.92
2019-03-29T23:40:30.142Z,8.80
2019-03-29T23:45:24.146Z,8.70
2019-03-29T23:50:18.169Z,8.59
2019-03-29T23:55:12.170Z,8.50
